sensor_id;sensor_type;location;lat;lon;timestamp;P1;durP1;ratioP1;P2;durP2;ratioP2
30818;SDS011;17546;42.674;23.284;2022-07-10T00:01:47;13.25;;;10.43;;
30818;SDS011;17546;42.674;23.284;2022-07-10T00:04:12;14.48;;;10.63;;
30818;SDS011;17546;42.674;23.284;2022-07-10T00:06:38;13.65;;;10.80;;
30818;SDS011;17546;42.674;23.284;2022-07-10T00:09:06;14.80;;;10.38;;
30818;SDS011;17546;42.674;23.284;2022-07-10T00:11:32;12.23;;;10.20;;
30818;SDS011;17546;42.674;23.284;2022-07-10T00:13:58;19.90;;;10.57;;
30818;SDS011;17546;42.674;23.284;2022-07-10T00:16:23;17.67;;;10.68;;
30818;SDS011;17546;42.674;23.284;2022-07-10T00:18:50;15.25;;;11.07;;
30818;SDS011;17546;42.674;23.284;2022-07-10T00:21:15;20.52;;;11.45;;
30818;SDS011;17546;42.674;23.284;2022-07-10T00:23:41;17.92;;;10.45;;
30818;SDS011;17546;42.674;23.284;2022-07-10T00:26:07;17.90;;;11.07;;
30818;SDS011;17546;42.674;23.284;2022-07-10T00:28:34;14.95;;;10.93;;
30818;SDS011;17546;42.674;23.284;2022-07-10T00:30:59;15.50;;;11.00;;
30818;SDS011;17546;42.674;23.284;2022-07-10T00:33:25;16.65;;;11.32;;
30818;SDS011;17546;42.674;23.284;2022-07-10T00:35:50;16.98;;;11.63;;
30818;SDS011;17546;42.674;23.284;2022-07-10T00:38:16;17.83;;;11.80;;
30818;SDS011;17546;42.674;23.284;2022-07-10T00:40:41;17.90;;;12.20;;
30818;SDS011;17546;42.674;23.284;2022-07-10T00:43:10;13.52;;;10.98;;
30818;SDS011;17546;42.674;23.284;2022-07-10T00:45:35;16.42;;;10.80;;
30818;SDS011;17546;42.674;23.284;2022-07-10T00:48:01;12.85;;;10.90;;
30818;SDS011;17546;42.674;23.284;2022-07-10T00:50:27;17.65;;;11.57;;
30818;SDS011;17546;42.674;23.284;2022-07-10T00:52:53;15.90;;;11.52;;
30818;SDS011;17546;42.674;23.284;2022-07-10T00:55:19;16.95;;;11.43;;
30818;SDS011;17546;42.674;23.284;2022-07-10T00:57:45;16.55;;;10.85;;
30818;SDS011;17546;42.674;23.284;2022-07-10T01:00:12;22.27;;;11.50;;
30818;SDS011;17546;42.674;23.284;2022-07-10T01:02:42;20.77;;;11.93;;
30818;SDS011;17546;42.674;23.284;2022-07-10T01:05:09;13.68;;;10.85;;
30818;SDS011;17546;42.674;23.284;2022-07-10T01:07:35;17.50;;;11.48;;
30818;SDS011;17546;42.674;23.284;2022-07-10T01:10:01;16.60;;;10.88;;
30818;SDS011;17546;42.674;23.284;2022-07-10T01:12:27;18.90;;;11.43;;
30818;SDS011;17546;42.674;23.284;2022-07-10T01:14:53;14.05;;;11.20;;
30818;SDS011;17546;42.674;23.284;2022-07-10T01:17:20;17.58;;;11.35;;
30818;SDS011;17546;42.674;23.284;2022-07-10T01:19:45;15.52;;;11.05;;
30818;SDS011;17546;42.674;23.284;2022-07-10T01:22:11;14.82;;;11.60;;
30818;SDS011;17546;42.674;23.284;2022-07-10T01:24:36;13.35;;;11.30;;
30818;SDS011;17546;42.674;23.284;2022-07-10T01:27:02;17.60;;;11.75;;
30818;SDS011;17546;42.674;23.284;2022-07-10T01:29:28;16.80;;;11.30;;
30818;SDS011;17546;42.674;23.284;2022-07-10T01:31:54;15.68;;;11.27;;
30818;SDS011;17546;42.674;23.284;2022-07-10T01:34:19;14.77;;;11.13;;
30818;SDS011;17546;42.674;23.284;2022-07-10T01:36:45;18.50;;;10.68;;
30818;SDS011;17546;42.674;23.284;2022-07-10T01:39:11;17.02;;;10.55;;
30818;SDS011;17546;42.674;23.284;2022-07-10T01:41:36;15.30;;;10.80;;
30818;SDS011;17546;42.674;23.284;2022-07-10T01:44:02;14.60;;;10.80;;
30818;SDS011;17546;42.674;23.284;2022-07-10T01:46:27;18.58;;;10.65;;
30818;SDS011;17546;42.674;23.284;2022-07-10T01:48:53;12.95;;;10.73;;
30818;SDS011;17546;42.674;23.284;2022-07-10T01:51:19;15.68;;;10.63;;
30818;SDS011;17546;42.674;23.284;2022-07-10T01:53:45;14.35;;;11.10;;
30818;SDS011;17546;42.674;23.284;2022-07-10T01:56:11;15.30;;;11.15;;
30818;SDS011;17546;42.674;23.284;2022-07-10T01:58:38;14.25;;;10.48;;
30818;SDS011;17546;42.674;23.284;2022-07-10T02:01:06;15.77;;;10.60;;
30818;SDS011;17546;42.674;23.284;2022-07-10T02:03:34;12.75;;;9.75;;
30818;SDS011;17546;42.674;23.284;2022-07-10T02:06:17;12.82;;;9.98;;
30818;SDS011;17546;42.674;23.284;2022-07-10T02:08:43;12.75;;;9.88;;
30818;SDS011;17546;42.674;23.284;2022-07-10T02:11:09;13.52;;;10.25;;
30818;SDS011;17546;42.674;23.284;2022-07-10T02:13:35;13.18;;;10.15;;
30818;SDS011;17546;42.674;23.284;2022-07-10T02:16:00;14.27;;;9.77;;
30818;SDS011;17546;42.674;23.284;2022-07-10T02:18:25;11.75;;;10.55;;
30818;SDS011;17546;42.674;23.284;2022-07-10T02:20:51;13.60;;;10.48;;
30818;SDS011;17546;42.674;23.284;2022-07-10T02:23:17;13.73;;;9.82;;
30818;SDS011;17546;42.674;23.284;2022-07-10T02:25:43;12.93;;;10.18;;
30818;SDS011;17546;42.674;23.284;2022-07-10T02:28:09;15.75;;;9.98;;
30818;SDS011;17546;42.674;23.284;2022-07-10T02:30:35;18.50;;;10.65;;
30818;SDS011;17546;42.674;23.284;2022-07-10T02:33:03;18.35;;;10.48;;
30818;SDS011;17546;42.674;23.284;2022-07-10T02:35:28;11.73;;;10.13;;
30818;SDS011;17546;42.674;23.284;2022-07-10T02:37:54;14.02;;;10.00;;
30818;SDS011;17546;42.674;23.284;2022-07-10T02:40:19;12.10;;;9.35;;
30818;SDS011;17546;42.674;23.284;2022-07-10T02:42:45;13.00;;;8.95;;
30818;SDS011;17546;42.674;23.284;2022-07-10T02:45:11;15.20;;;9.32;;
30818;SDS011;17546;42.674;23.284;2022-07-10T02:47:36;12.95;;;9.38;;
30818;SDS011;17546;42.674;23.284;2022-07-10T02:50:02;12.43;;;9.15;;
30818;SDS011;17546;42.674;23.284;2022-07-10T02:52:28;15.18;;;9.02;;
30818;SDS011;17546;42.674;23.284;2022-07-10T02:54:55;13.18;;;9.48;;
30818;SDS011;17546;42.674;23.284;2022-07-10T02:57:22;11.88;;;8.65;;
30818;SDS011;17546;42.674;23.284;2022-07-10T02:59:47;16.83;;;9.23;;
30818;SDS011;17546;42.674;23.284;2022-07-10T03:02:13;15.38;;;9.35;;
30818;SDS011;17546;42.674;23.284;2022-07-10T03:04:38;14.60;;;8.88;;
30818;SDS011;17546;42.674;23.284;2022-07-10T03:07:04;18.75;;;8.35;;
30818;SDS011;17546;42.674;23.284;2022-07-10T03:09:30;17.40;;;8.95;;
30818;SDS011;17546;42.674;23.284;2022-07-10T03:11:55;13.10;;;9.40;;
30818;SDS011;17546;42.674;23.284;2022-07-10T03:14:21;15.82;;;9.05;;
30818;SDS011;17546;42.674;23.284;2022-07-10T03:16:46;12.65;;;8.88;;
30818;SDS011;17546;42.674;23.284;2022-07-10T03:19:12;17.35;;;11.50;;
30818;SDS011;17546;42.674;23.284;2022-07-10T03:21:38;14.82;;;9.60;;
30818;SDS011;17546;42.674;23.284;2022-07-10T03:24:03;12.82;;;9.35;;
30818;SDS011;17546;42.674;23.284;2022-07-10T03:26:29;13.00;;;9.10;;
30818;SDS011;17546;42.674;23.284;2022-07-10T03:28:55;14.80;;;9.05;;
30818;SDS011;17546;42.674;23.284;2022-07-10T03:31:21;17.70;;;9.60;;
30818;SDS011;17546;42.674;23.284;2022-07-10T03:33:46;13.07;;;10.02;;
30818;SDS011;17546;42.674;23.284;2022-07-10T03:36:12;17.10;;;9.95;;
30818;SDS011;17546;42.674;23.284;2022-07-10T03:38:40;14.70;;;10.30;;
30818;SDS011;17546;42.674;23.284;2022-07-10T03:41:06;15.10;;;9.20;;
30818;SDS011;17546;42.674;23.284;2022-07-10T03:43:32;16.10;;;9.35;;
30818;SDS011;17546;42.674;23.284;2022-07-10T03:45:58;13.85;;;9.27;;
30818;SDS011;17546;42.674;23.284;2022-07-10T03:48:24;13.25;;;9.48;;
30818;SDS011;17546;42.674;23.284;2022-07-10T03:50:50;14.63;;;9.52;;
30818;SDS011;17546;42.674;23.284;2022-07-10T03:53:15;15.13;;;9.45;;
30818;SDS011;17546;42.674;23.284;2022-07-10T03:55:41;13.13;;;9.55;;
30818;SDS011;17546;42.674;23.284;2022-07-10T03:58:07;16.23;;;9.20;;
30818;SDS011;17546;42.674;23.284;2022-07-10T04:00:32;13.65;;;9.50;;
30818;SDS011;17546;42.674;23.284;2022-07-10T04:02:59;17.25;;;9.73;;
30818;SDS011;17546;42.674;23.284;2022-07-10T04:05:26;13.80;;;9.93;;
30818;SDS011;17546;42.674;23.284;2022-07-10T04:07:52;11.50;;;9.55;;
30818;SDS011;17546;42.674;23.284;2022-07-10T04:10:18;12.05;;;9.38;;
30818;SDS011;17546;42.674;23.284;2022-07-10T04:12:44;18.15;;;9.90;;
30818;SDS011;17546;42.674;23.284;2022-07-10T04:15:10;17.40;;;10.20;;
30818;SDS011;17546;42.674;23.284;2022-07-10T04:17:36;20.73;;;11.00;;
30818;SDS011;17546;42.674;23.284;2022-07-10T04:20:02;21.30;;;9.35;;
30818;SDS011;17546;42.674;23.284;2022-07-10T04:22:28;17.65;;;10.32;;
30818;SDS011;17546;42.674;23.284;2022-07-10T04:24:54;14.02;;;9.57;;
30818;SDS011;17546;42.674;23.284;2022-07-10T04:27:23;16.10;;;8.68;;
30818;SDS011;17546;42.674;23.284;2022-07-10T04:29:49;11.35;;;8.50;;
30818;SDS011;17546;42.674;23.284;2022-07-10T04:32:14;12.80;;;8.40;;
30818;SDS011;17546;42.674;23.284;2022-07-10T04:34:40;10.63;;;8.48;;
30818;SDS011;17546;42.674;23.284;2022-07-10T04:37:06;9.32;;;8.00;;
30818;SDS011;17546;42.674;23.284;2022-07-10T04:39:35;11.82;;;8.07;;
30818;SDS011;17546;42.674;23.284;2022-07-10T04:42:02;14.43;;;8.27;;
30818;SDS011;17546;42.674;23.284;2022-07-10T04:44:29;16.88;;;8.23;;
30818;SDS011;17546;42.674;23.284;2022-07-10T04:46:54;11.60;;;7.97;;
30818;SDS011;17546;42.674;23.284;2022-07-10T04:49:20;10.82;;;8.10;;
30818;SDS011;17546;42.674;23.284;2022-07-10T04:51:45;17.10;;;8.18;;
30818;SDS011;17546;42.674;23.284;2022-07-10T04:54:10;12.18;;;8.13;;
30818;SDS011;17546;42.674;23.284;2022-07-10T04:56:36;10.45;;;7.82;;
30818;SDS011;17546;42.674;23.284;2022-07-10T04:59:01;15.00;;;8.48;;
30818;SDS011;17546;42.674;23.284;2022-07-10T05:01:27;15.95;;;9.25;;
30818;SDS011;17546;42.674;23.284;2022-07-10T05:03:53;12.32;;;7.97;;
30818;SDS011;17546;42.674;23.284;2022-07-10T05:06:20;13.50;;;8.20;;
30818;SDS011;17546;42.674;23.284;2022-07-10T05:08:46;14.63;;;8.00;;
30818;SDS011;17546;42.674;23.284;2022-07-10T05:11:11;10.50;;;7.85;;
30818;SDS011;17546;42.674;23.284;2022-07-10T05:13:37;13.45;;;8.18;;
30818;SDS011;17546;42.674;23.284;2022-07-10T05:16:03;16.50;;;7.78;;
30818;SDS011;17546;42.674;23.284;2022-07-10T05:18:31;14.63;;;8.43;;
30818;SDS011;17546;42.674;23.284;2022-07-10T05:20:57;15.85;;;7.78;;
30818;SDS011;17546;42.674;23.284;2022-07-10T05:23:22;11.15;;;7.57;;
30818;SDS011;17546;42.674;23.284;2022-07-10T05:25:48;11.15;;;7.85;;
30818;SDS011;17546;42.674;23.284;2022-07-10T05:28:14;9.75;;;7.70;;
30818;SDS011;17546;42.674;23.284;2022-07-10T05:30:40;15.50;;;7.90;;
30818;SDS011;17546;42.674;23.284;2022-07-10T05:33:06;14.80;;;7.82;;
30818;SDS011;17546;42.674;23.284;2022-07-10T05:35:32;12.57;;;7.18;;
30818;SDS011;17546;42.674;23.284;2022-07-10T05:37:57;9.52;;;7.07;;
30818;SDS011;17546;42.674;23.284;2022-07-10T05:40:23;11.77;;;7.55;;
30818;SDS011;17546;42.674;23.284;2022-07-10T05:42:48;10.73;;;6.97;;
30818;SDS011;17546;42.674;23.284;2022-07-10T05:45:14;14.50;;;7.80;;
30818;SDS011;17546;42.674;23.284;2022-07-10T05:47:39;10.35;;;7.18;;
30818;SDS011;17546;42.674;23.284;2022-07-10T05:50:05;9.07;;;7.20;;
30818;SDS011;17546;42.674;23.284;2022-07-10T05:52:32;18.30;;;7.50;;
30818;SDS011;17546;42.674;23.284;2022-07-10T05:54:58;16.90;;;7.00;;
30818;SDS011;17546;42.674;23.284;2022-07-10T05:57:23;8.65;;;6.15;;
30818;SDS011;17546;42.674;23.284;2022-07-10T05:59:49;11.05;;;6.00;;
30818;SDS011;17546;42.674;23.284;2022-07-10T06:02:15;8.48;;;5.90;;
30818;SDS011;17546;42.674;23.284;2022-07-10T06:04:41;9.80;;;5.82;;
30818;SDS011;17546;42.674;23.284;2022-07-10T06:07:07;8.55;;;6.00;;
30818;SDS011;17546;42.674;23.284;2022-07-10T06:09:32;9.05;;;6.07;;
30818;SDS011;17546;42.674;23.284;2022-07-10T06:11:58;8.32;;;5.65;;
30818;SDS011;17546;42.674;23.284;2022-07-10T06:14:23;8.02;;;5.70;;
30818;SDS011;17546;42.674;23.284;2022-07-10T06:16:49;9.15;;;5.45;;
30818;SDS011;17546;42.674;23.284;2022-07-10T06:19:14;8.75;;;5.60;;
30818;SDS011;17546;42.674;23.284;2022-07-10T06:21:42;17.40;;;5.38;;
30818;SDS011;17546;42.674;23.284;2022-07-10T06:24:08;8.00;;;4.63;;
30818;SDS011;17546;42.674;23.284;2022-07-10T06:26:33;9.10;;;4.60;;
30818;SDS011;17546;42.674;23.284;2022-07-10T06:28:59;8.10;;;4.90;;
30818;SDS011;17546;42.674;23.284;2022-07-10T06:31:24;9.88;;;4.20;;
30818;SDS011;17546;42.674;23.284;2022-07-10T06:33:49;10.55;;;4.65;;
30818;SDS011;17546;42.674;23.284;2022-07-10T06:36:15;7.57;;;5.03;;
30818;SDS011;17546;42.674;23.284;2022-07-10T06:38:40;9.85;;;4.90;;
30818;SDS011;17546;42.674;23.284;2022-07-10T06:41:06;9.05;;;4.20;;
30818;SDS011;17546;42.674;23.284;2022-07-10T06:43:32;9.02;;;4.32;;
30818;SDS011;17546;42.674;23.284;2022-07-10T06:45:57;11.18;;;4.28;;
30818;SDS011;17546;42.674;23.284;2022-07-10T06:48:23;9.52;;;4.32;;
30818;SDS011;17546;42.674;23.284;2022-07-10T06:50:51;6.15;;;3.92;;
30818;SDS011;17546;42.674;23.284;2022-07-10T06:53:16;14.10;;;4.10;;
30818;SDS011;17546;42.674;23.284;2022-07-10T06:55:42;7.30;;;3.65;;
30818;SDS011;17546;42.674;23.284;2022-07-10T06:58:07;14.63;;;4.10;;
30818;SDS011;17546;42.674;23.284;2022-07-10T07:00:33;13.20;;;4.22;;
30818;SDS011;17546;42.674;23.284;2022-07-10T07:02:59;8.70;;;3.80;;
30818;SDS011;17546;42.674;23.284;2022-07-10T07:05:24;9.52;;;4.10;;
30818;SDS011;17546;42.674;23.284;2022-07-10T07:07:49;8.70;;;4.40;;
30818;SDS011;17546;42.674;23.284;2022-07-10T07:10:15;10.05;;;4.32;;
30818;SDS011;17546;42.674;23.284;2022-07-10T07:12:40;11.90;;;3.95;;
30818;SDS011;17546;42.674;23.284;2022-07-10T07:15:06;6.95;;;4.38;;
30818;SDS011;17546;42.674;23.284;2022-07-10T07:17:32;9.90;;;4.18;;
30818;SDS011;17546;42.674;23.284;2022-07-10T07:19:59;8.32;;;4.32;;
30818;SDS011;17546;42.674;23.284;2022-07-10T07:22:46;8.32;;;3.95;;
30818;SDS011;17546;42.674;23.284;2022-07-10T07:25:30;5.93;;;4.20;;
30818;SDS011;17546;42.674;23.284;2022-07-10T07:27:55;8.50;;;3.50;;
30818;SDS011;17546;42.674;23.284;2022-07-10T07:30:21;5.35;;;3.42;;
30818;SDS011;17546;42.674;23.284;2022-07-10T07:32:46;6.30;;;3.42;;
30818;SDS011;17546;42.674;23.284;2022-07-10T07:35:13;9.52;;;3.25;;
30818;SDS011;17546;42.674;23.284;2022-07-10T07:40:09;10.85;;;3.22;;
30818;SDS011;17546;42.674;23.284;2022-07-10T07:42:37;9.18;;;3.47;;
30818;SDS011;17546;42.674;23.284;2022-07-10T07:45:03;8.18;;;3.13;;
30818;SDS011;17546;42.674;23.284;2022-07-10T07:47:29;6.82;;;3.70;;
30818;SDS011;17546;42.674;23.284;2022-07-10T07:49:55;7.18;;;3.20;;
30818;SDS011;17546;42.674;23.284;2022-07-10T07:52:20;7.47;;;3.50;;
30818;SDS011;17546;42.674;23.284;2022-07-10T07:54:47;5.78;;;3.00;;
30818;SDS011;17546;42.674;23.284;2022-07-10T07:57:14;8.50;;;3.08;;
30818;SDS011;17546;42.674;23.284;2022-07-10T07:59:40;8.15;;;2.78;;
30818;SDS011;17546;42.674;23.284;2022-07-10T08:02:05;8.07;;;2.75;;
30818;SDS011;17546;42.674;23.284;2022-07-10T08:04:31;6.57;;;2.72;;
30818;SDS011;17546;42.674;23.284;2022-07-10T08:06:56;9.27;;;3.10;;
30818;SDS011;17546;42.674;23.284;2022-07-10T08:09:22;5.88;;;2.78;;
30818;SDS011;17546;42.674;23.284;2022-07-10T08:11:47;4.93;;;2.30;;
30818;SDS011;17546;42.674;23.284;2022-07-10T08:14:13;9.13;;;2.72;;
30818;SDS011;17546;42.674;23.284;2022-07-10T08:16:39;3.78;;;2.60;;
30818;SDS011;17546;42.674;23.284;2022-07-10T08:19:05;6.68;;;2.65;;
30818;SDS011;17546;42.674;23.284;2022-07-10T08:21:30;5.18;;;2.80;;
30818;SDS011;17546;42.674;23.284;2022-07-10T08:23:56;8.80;;;3.00;;
30818;SDS011;17546;42.674;23.284;2022-07-10T08:26:22;6.47;;;2.60;;
30818;SDS011;17546;42.674;23.284;2022-07-10T08:28:47;6.70;;;2.58;;
30818;SDS011;17546;42.674;23.284;2022-07-10T08:31:15;7.72;;;2.75;;
30818;SDS011;17546;42.674;23.284;2022-07-10T08:33:41;8.35;;;2.83;;
30818;SDS011;17546;42.674;23.284;2022-07-10T08:36:07;10.77;;;2.90;;
30818;SDS011;17546;42.674;23.284;2022-07-10T08:38:32;4.65;;;2.30;;
30818;SDS011;17546;42.674;23.284;2022-07-10T08:40:58;5.72;;;2.70;;
30818;SDS011;17546;42.674;23.284;2022-07-10T08:43:27;8.10;;;2.67;;
30818;SDS011;17546;42.674;23.284;2022-07-10T08:45:53;6.57;;;2.80;;
30818;SDS011;17546;42.674;23.284;2022-07-10T08:48:22;6.55;;;2.42;;
30818;SDS011;17546;42.674;23.284;2022-07-10T08:50:51;6.10;;;2.70;;
30818;SDS011;17546;42.674;23.284;2022-07-10T08:53:31;8.70;;;3.30;;
30818;SDS011;17546;42.674;23.284;2022-07-10T08:55:57;7.15;;;2.92;;
30818;SDS011;17546;42.674;23.284;2022-07-10T08:58:23;9.07;;;2.72;;
30818;SDS011;17546;42.674;23.284;2022-07-10T09:00:49;3.53;;;2.40;;
30818;SDS011;17546;42.674;23.284;2022-07-10T09:03:15;8.85;;;2.40;;
30818;SDS011;17546;42.674;23.284;2022-07-10T09:05:40;5.25;;;2.63;;
30818;SDS011;17546;42.674;23.284;2022-07-10T09:08:26;6.93;;;2.40;;
30818;SDS011;17546;42.674;23.284;2022-07-10T09:11:12;6.40;;;2.60;;
30818;SDS011;17546;42.674;23.284;2022-07-10T09:16:20;6.32;;;3.05;;
30818;SDS011;17546;42.674;23.284;2022-07-10T09:21:14;8.68;;;3.03;;
30818;SDS011;17546;42.674;23.284;2022-07-10T09:23:40;6.18;;;2.53;;
30818;SDS011;17546;42.674;23.284;2022-07-10T09:26:05;4.63;;;2.63;;
30818;SDS011;17546;42.674;23.284;2022-07-10T09:28:30;5.75;;;2.35;;
30818;SDS011;17546;42.674;23.284;2022-07-10T09:30:56;7.70;;;2.60;;
30818;SDS011;17546;42.674;23.284;2022-07-10T09:43:47;8.88;;;2.40;;
30818;SDS011;17546;42.674;23.284;2022-07-10T09:46:33;5.95;;;2.17;;
30818;SDS011;17546;42.674;23.284;2022-07-10T09:51:29;7.78;;;2.38;;
30818;SDS011;17546;42.674;23.284;2022-07-10T09:53:57;4.70;;;2.40;;
30818;SDS011;17546;42.674;23.284;2022-07-10T09:56:25;4.35;;;2.47;;
30818;SDS011;17546;42.674;23.284;2022-07-10T09:58:52;10.55;;;2.47;;
30818;SDS011;17546;42.674;23.284;2022-07-10T10:01:24;5.25;;;2.15;;
30818;SDS011;17546;42.674;23.284;2022-07-10T10:03:52;4.32;;;1.90;;
30818;SDS011;17546;42.674;23.284;2022-07-10T10:06:18;4.30;;;2.22;;
30818;SDS011;17546;42.674;23.284;2022-07-10T10:08:59;3.20;;;2.05;;
30818;SDS011;17546;42.674;23.284;2022-07-10T10:11:31;6.67;;;2.70;;
30818;SDS011;17546;42.674;23.284;2022-07-10T10:14:00;8.75;;;2.40;;
30818;SDS011;17546;42.674;23.284;2022-07-10T10:16:27;7.18;;;2.47;;
30818;SDS011;17546;42.674;23.284;2022-07-10T10:18:54;11.15;;;2.58;;
30818;SDS011;17546;42.674;23.284;2022-07-10T10:21:39;6.72;;;2.65;;
30818;SDS011;17546;42.674;23.284;2022-07-10T10:24:05;10.70;;;2.30;;
30818;SDS011;17546;42.674;23.284;2022-07-10T10:26:32;6.00;;;2.20;;
30818;SDS011;17546;42.674;23.284;2022-07-10T10:28:59;5.13;;;1.95;;
30818;SDS011;17546;42.674;23.284;2022-07-10T10:31:26;4.07;;;2.20;;
30818;SDS011;17546;42.674;23.284;2022-07-10T10:33:54;4.60;;;2.15;;
30818;SDS011;17546;42.674;23.284;2022-07-10T10:36:46;6.72;;;2.22;;
30818;SDS011;17546;42.674;23.284;2022-07-10T10:39:13;2.70;;;1.77;;
30818;SDS011;17546;42.674;23.284;2022-07-10T10:41:44;9.82;;;2.33;;
30818;SDS011;17546;42.674;23.284;2022-07-10T10:47:01;9.02;;;2.28;;
30818;SDS011;17546;42.674;23.284;2022-07-10T10:49:48;5.43;;;2.40;;
30818;SDS011;17546;42.674;23.284;2022-07-10T10:52:18;6.28;;;1.98;;
30818;SDS011;17546;42.674;23.284;2022-07-10T11:00:04;2.70;;;1.98;;
30818;SDS011;17546;42.674;23.284;2022-07-10T11:02:33;6.88;;;2.10;;
30818;SDS011;17546;42.674;23.284;2022-07-10T11:10:33;7.13;;;1.95;;
30818;SDS011;17546;42.674;23.284;2022-07-10T11:15:43;5.97;;;2.35;;
30818;SDS011;17546;42.674;23.284;2022-07-10T11:20:42;6.47;;;1.80;;
30818;SDS011;17546;42.674;23.284;2022-07-10T11:23:36;5.22;;;2.08;;
30818;SDS011;17546;42.674;23.284;2022-07-10T11:29:04;7.13;;;2.03;;
30818;SDS011;17546;42.674;23.284;2022-07-10T11:31:31;6.00;;;2.20;;
30818;SDS011;17546;42.674;23.284;2022-07-10T11:34:03;4.70;;;2.20;;
30818;SDS011;17546;42.674;23.284;2022-07-10T11:36:29;7.40;;;2.25;;
30818;SDS011;17546;42.674;23.284;2022-07-10T11:39:15;8.23;;;2.10;;
30818;SDS011;17546;42.674;23.284;2022-07-10T11:41:44;3.70;;;2.20;;
30818;SDS011;17546;42.674;23.284;2022-07-10T11:44:14;3.92;;;2.00;;
30818;SDS011;17546;42.674;23.284;2022-07-10T11:46:46;5.25;;;2.10;;
30818;SDS011;17546;42.674;23.284;2022-07-10T11:49:14;7.68;;;2.20;;
30818;SDS011;17546;42.674;23.284;2022-07-10T11:51:40;5.65;;;2.13;;
30818;SDS011;17546;42.674;23.284;2022-07-10T11:56:47;5.15;;;2.10;;
30818;SDS011;17546;42.674;23.284;2022-07-10T11:59:14;5.43;;;1.90;;
30818;SDS011;17546;42.674;23.284;2022-07-10T12:01:41;5.25;;;2.08;;
30818;SDS011;17546;42.674;23.284;2022-07-10T12:04:08;4.35;;;1.80;;
30818;SDS011;17546;42.674;23.284;2022-07-10T12:06:35;6.07;;;1.63;;
30818;SDS011;17546;42.674;23.284;2022-07-10T12:09:03;6.65;;;1.75;;
30818;SDS011;17546;42.674;23.284;2022-07-10T12:11:30;10.38;;;1.75;;
30818;SDS011;17546;42.674;23.284;2022-07-10T12:14:08;5.75;;;1.98;;
30818;SDS011;17546;42.674;23.284;2022-07-10T12:19:09;3.20;;;1.70;;
30818;SDS011;17546;42.674;23.284;2022-07-10T12:21:38;4.35;;;1.98;;
30818;SDS011;17546;42.674;23.284;2022-07-10T12:24:05;4.05;;;1.75;;
30818;SDS011;17546;42.674;23.284;2022-07-10T12:26:35;2.90;;;2.10;;
30818;SDS011;17546;42.674;23.284;2022-07-10T12:29:02;8.45;;;2.30;;
30818;SDS011;17546;42.674;23.284;2022-07-10T12:31:29;12.73;;;2.10;;
30818;SDS011;17546;42.674;23.284;2022-07-10T12:34:00;4.65;;;1.63;;
30818;SDS011;17546;42.674;23.284;2022-07-10T12:36:47;2.60;;;1.77;;
30818;SDS011;17546;42.674;23.284;2022-07-10T12:39:21;4.72;;;1.92;;
30818;SDS011;17546;42.674;23.284;2022-07-10T12:44:43;7.10;;;1.65;;
30818;SDS011;17546;42.674;23.284;2022-07-10T12:47:13;3.85;;;1.40;;
30818;SDS011;17546;42.674;23.284;2022-07-10T12:52:29;3.72;;;1.40;;
30818;SDS011;17546;42.674;23.284;2022-07-10T12:57:30;11.20;;;1.40;;
30818;SDS011;17546;42.674;23.284;2022-07-10T13:00:02;7.70;;;1.38;;
30818;SDS011;17546;42.674;23.284;2022-07-10T13:02:29;6.03;;;1.50;;
30818;SDS011;17546;42.674;23.284;2022-07-10T13:04:56;12.27;;;1.70;;
30818;SDS011;17546;42.674;23.284;2022-07-10T13:07:29;7.57;;;1.45;;
30818;SDS011;17546;42.674;23.284;2022-07-10T13:10:02;2.50;;;1.10;;
30818;SDS011;17546;42.674;23.284;2022-07-10T13:12:29;10.52;;;1.60;;
30818;SDS011;17546;42.674;23.284;2022-07-10T13:14:54;43.70;;;1.92;;
30818;SDS011;17546;42.674;23.284;2022-07-10T13:17:20;2.15;;;1.02;;
30818;SDS011;17546;42.674;23.284;2022-07-10T13:19:45;3.95;;;1.08;;
30818;SDS011;17546;42.674;23.284;2022-07-10T13:22:11;3.88;;;1.38;;
30818;SDS011;17546;42.674;23.284;2022-07-10T13:24:37;7.30;;;1.40;;
30818;SDS011;17546;42.674;23.284;2022-07-10T13:27:02;3.95;;;1.38;;
30818;SDS011;17546;42.674;23.284;2022-07-10T13:29:28;4.25;;;1.20;;
30818;SDS011;17546;42.674;23.284;2022-07-10T13:31:54;3.83;;;1.67;;
30818;SDS011;17546;42.674;23.284;2022-07-10T13:34:19;3.28;;;1.48;;
30818;SDS011;17546;42.674;23.284;2022-07-10T13:36:45;3.00;;;1.30;;
30818;SDS011;17546;42.674;23.284;2022-07-10T13:39:10;7.45;;;1.40;;
30818;SDS011;17546;42.674;23.284;2022-07-10T13:41:36;7.13;;;1.20;;
30818;SDS011;17546;42.674;23.284;2022-07-10T13:44:01;5.65;;;1.30;;
30818;SDS011;17546;42.674;23.284;2022-07-10T13:46:27;3.15;;;1.27;;
30818;SDS011;17546;42.674;23.284;2022-07-10T13:48:53;4.63;;;1.20;;
30818;SDS011;17546;42.674;23.284;2022-07-10T13:51:18;5.45;;;1.30;;
30818;SDS011;17546;42.674;23.284;2022-07-10T13:53:43;3.45;;;1.30;;
30818;SDS011;17546;42.674;23.284;2022-07-10T13:56:09;5.32;;;1.30;;
30818;SDS011;17546;42.674;23.284;2022-07-10T13:58:35;9.40;;;1.30;;
30818;SDS011;17546;42.674;23.284;2022-07-10T14:01:01;4.10;;;1.33;;
30818;SDS011;17546;42.674;23.284;2022-07-10T14:03:29;8.20;;;1.23;;
30818;SDS011;17546;42.674;23.284;2022-07-10T14:05:55;4.80;;;1.10;;
30818;SDS011;17546;42.674;23.284;2022-07-10T14:08:21;5.78;;;1.25;;
30818;SDS011;17546;42.674;23.284;2022-07-10T14:10:46;2.08;;;1.20;;
30818;SDS011;17546;42.674;23.284;2022-07-10T14:13:12;10.43;;;1.30;;
30818;SDS011;17546;42.674;23.284;2022-07-10T14:15:38;3.20;;;1.20;;
30818;SDS011;17546;42.674;23.284;2022-07-10T14:18:03;2.25;;;1.30;;
30818;SDS011;17546;42.674;23.284;2022-07-10T14:20:30;5.18;;;1.17;;
30818;SDS011;17546;42.674;23.284;2022-07-10T14:23:16;3.55;;;1.33;;
30818;SDS011;17546;42.674;23.284;2022-07-10T14:25:41;4.70;;;1.50;;
30818;SDS011;17546;42.674;23.284;2022-07-10T14:28:07;3.47;;;1.40;;
30818;SDS011;17546;42.674;23.284;2022-07-10T14:30:32;9.55;;;1.50;;
30818;SDS011;17546;42.674;23.284;2022-07-10T14:32:58;2.80;;;1.23;;
30818;SDS011;17546;42.674;23.284;2022-07-10T14:35:23;4.85;;;1.80;;
30818;SDS011;17546;42.674;23.284;2022-07-10T14:37:49;6.00;;;2.30;;
30818;SDS011;17546;42.674;23.284;2022-07-10T14:40:14;5.82;;;1.33;;
30818;SDS011;17546;42.674;23.284;2022-07-10T14:42:40;3.08;;;1.30;;
30818;SDS011;17546;42.674;23.284;2022-07-10T14:45:05;2.83;;;1.30;;
30818;SDS011;17546;42.674;23.284;2022-07-10T14:47:31;5.90;;;1.30;;
30818;SDS011;17546;42.674;23.284;2022-07-10T14:49:58;9.55;;;1.55;;
30818;SDS011;17546;42.674;23.284;2022-07-10T14:52:23;6.10;;;2.10;;
30818;SDS011;17546;42.674;23.284;2022-07-10T14:54:51;4.72;;;1.40;;
30818;SDS011;17546;42.674;23.284;2022-07-10T14:57:17;2.20;;;1.30;;
30818;SDS011;17546;42.674;23.284;2022-07-10T14:59:42;7.70;;;2.15;;
30818;SDS011;17546;42.674;23.284;2022-07-10T15:02:08;5.90;;;1.30;;
30818;SDS011;17546;42.674;23.284;2022-07-10T15:04:33;6.30;;;1.30;;
30818;SDS011;17546;42.674;23.284;2022-07-10T15:06:59;6.75;;;1.30;;
30818;SDS011;17546;42.674;23.284;2022-07-10T15:09:25;6.50;;;4.05;;
30818;SDS011;17546;42.674;23.284;2022-07-10T15:11:50;3.50;;;2.50;;
30818;SDS011;17546;42.674;23.284;2022-07-10T15:14:18;2.47;;;1.27;;
30818;SDS011;17546;42.674;23.284;2022-07-10T15:16:43;4.13;;;1.40;;
30818;SDS011;17546;42.674;23.284;2022-07-10T15:19:08;1.75;;;1.25;;
30818;SDS011;17546;42.674;23.284;2022-07-10T15:21:43;6.47;;;1.52;;